sensor_id;sensor_type;location;lat;lon;timestamp;pressure;altitude;pressure_sealevel;temperature;humidity
51460;BME280;37534;39.772;2.718;2023-07-28T00:00:43;101088.50;;;26.91;100.00
51460;BME280;37534;39.772;2.718;2023-07-28T00:03:09;101088.78;;;26.88;100.00
51460;BME280;37534;39.772;2.718;2023-07-28T00:05:36;101091.84;;;26.83;100.00
51460;BME280;37534;39.772;2.718;2023-07-28T00:08:02;101085.16;;;26.79;100.00
51460;BME280;37534;39.772;2.718;2023-07-28T00:10:27;101062.56;;;26.65;100.00
51460;BME280;37534;39.772;2.718;2023-07-28T00:12:53;101082.78;;;26.76;100.00
51460;BME280;37534;39.772;2.718;2023-07-28T00:15:18;101083.03;;;26.73;100.00
51460;BME280;37534;39.772;2.718;2023-07-28T00:17:44;101068.56;;;26.67;100.00
51460;BME280;37534;39.772;2.718;2023-07-28T00:20:11;101060.88;;;26.64;100.00
51460;BME280;37534;39.772;2.718;2023-07-28T00:22:36;101071.72;;;26.61;100.00
51460;BME280;37534;39.772;2.718;2023-07-28T00:25:02;101060.53;;;26.58;100.00
51460;BME280;37534;39.772;2.718;2023-07-28T00:27:28;101058.06;;;26.56;100.00
51460;BME280;37534;39.772;2.718;2023-07-28T00:29:53;101042.84;;;26.39;100.00
51460;BME280;37534;39.772;2.718;2023-07-28T00:32:19;101036.94;;;26.25;100.00
51460;BME280;37534;39.772;2.718;2023-07-28T00:34:44;101057.38;;;26.23;100.00
51460;BME280;37534;39.772;2.718;2023-07-28T00:37:10;101045.28;;;26.21;100.00
51460;BME280;37534;39.772;2.718;2023-07-28T00:39:36;101032.75;;;26.23;100.00
51460;BME280;37534;39.772;2.718;2023-07-28T00:42:01;101028.66;;;26.09;100.00
51460;BME280;37534;39.772;2.718;2023-07-28T00:44:27;101020.19;;;26.15;100.00
51460;BME280;37534;39.772;2.718;2023-07-28T00:46:52;101029.25;;;26.12;100.00
51460;BME280;37534;39.772;2.718;2023-07-28T00:49:18;101031.41;;;25.97;100.00
51460;BME280;37534;39.772;2.718;2023-07-28T00:51:44;101028.56;;;25.89;100.00
51460;BME280;37534;39.772;2.718;2023-07-28T00:54:10;101036.47;;;25.89;100.00
51460;BME280;37534;39.772;2.718;2023-07-28T00:56:37;101033.50;;;25.94;100.00
51460;BME280;37534;39.772;2.718;2023-07-28T00:59:03;101023.25;;;26.10;100.00
51460;BME280;37534;39.772;2.718;2023-07-28T01:01:29;101015.88;;;26.14;100.00
51460;BME280;37534;39.772;2.718;2023-07-28T01:03:54;101015.81;;;25.94;100.00
51460;BME280;37534;39.772;2.718;2023-07-28T01:06:24;101017.72;;;25.92;100.00
51460;BME280;37534;39.772;2.718;2023-07-28T01:11:17;101018.84;;;25.69;100.00
51460;BME280;37534;39.772;2.718;2023-07-28T01:13:42;101005.00;;;25.55;100.00
51460;BME280;37534;39.772;2.718;2023-07-28T01:16:08;101020.06;;;25.65;100.00
51460;BME280;37534;39.772;2.718;2023-07-28T01:18:34;101010.16;;;25.78;100.00
51460;BME280;37534;39.772;2.718;2023-07-28T01:21:03;101006.78;;;25.76;100.00
51460;BME280;37534;39.772;2.718;2023-07-28T01:23:44;101007.13;;;25.61;100.00
51460;BME280;37534;39.772;2.718;2023-07-28T01:26:15;101007.84;;;25.64;100.00
51460;BME280;37534;39.772;2.718;2023-07-28T01:28:42;100999.28;;;25.50;100.00
51460;BME280;37534;39.772;2.718;2023-07-28T01:31:08;101008.03;;;25.51;100.00
51460;BME280;37534;39.772;2.718;2023-07-28T01:33:35;101002.63;;;25.52;100.00
51460;BME280;37534;39.772;2.718;2023-07-28T01:36:01;101004.75;;;25.37;100.00
51460;BME280;37534;39.772;2.718;2023-07-28T01:38:27;101007.31;;;25.28;100.00
51460;BME280;37534;39.772;2.718;2023-07-28T01:40:53;101005.88;;;25.23;100.00
51460;BME280;37534;39.772;2.718;2023-07-28T01:43:19;101006.38;;;25.17;100.00
51460;BME280;37534;39.772;2.718;2023-07-28T01:45:44;101010.84;;;25.17;100.00
51460;BME280;37534;39.772;2.718;2023-07-28T01:48:10;100998.53;;;25.06;100.00
51460;BME280;37534;39.772;2.718;2023-07-28T01:50:36;101000.81;;;24.99;100.00
51460;BME280;37534;39.772;2.718;2023-07-28T01:53:02;100994.84;;;24.97;100.00
51460;BME280;37534;39.772;2.718;2023-07-28T01:55:28;100995.94;;;24.95;100.00
51460;BME280;37534;39.772;2.718;2023-07-28T01:57:58;100997.41;;;24.88;100.00
51460;BME280;37534;39.772;2.718;2023-07-28T02:00:24;101014.19;;;24.86;100.00
51460;BME280;37534;39.772;2.718;2023-07-28T02:02:50;101016.38;;;24.81;100.00
51460;BME280;37534;39.772;2.718;2023-07-28T02:05:16;101016.38;;;24.81;100.00
51460;BME280;37534;39.772;2.718;2023-07-28T02:07:42;101015.53;;;24.81;100.00
51460;BME280;37534;39.772;2.718;2023-07-28T02:10:08;101017.59;;;24.77;100.00
51460;BME280;37534;39.772;2.718;2023-07-28T02:12:36;101003.97;;;24.61;100.00
51460;BME280;37534;39.772;2.718;2023-07-28T02:15:01;101021.47;;;24.62;100.00
51460;BME280;37534;39.772;2.718;2023-07-28T02:17:27;101014.84;;;24.67;100.00
51460;BME280;37534;39.772;2.718;2023-07-28T02:19:53;101008.75;;;24.67;100.00
51460;BME280;37534;39.772;2.718;2023-07-28T02:22:18;101014.53;;;24.61;100.00
51460;BME280;37534;39.772;2.718;2023-07-28T02:24:44;101016.06;;;24.52;100.00
51460;BME280;37534;39.772;2.718;2023-07-28T02:27:09;101012.13;;;24.58;100.00
51460;BME280;37534;39.772;2.718;2023-07-28T02:29:35;101018.22;;;24.70;100.00
51460;BME280;37534;39.772;2.718;2023-07-28T02:32:00;101018.00;;;24.50;100.00
51460;BME280;37534;39.772;2.718;2023-07-28T02:34:26;101017.06;;;24.40;100.00
51460;BME280;37534;39.772;2.718;2023-07-28T02:36:52;101012.25;;;24.34;100.00
51460;BME280;37534;39.772;2.718;2023-07-28T02:39:17;101007.47;;;24.27;100.00
51460;BME280;37534;39.772;2.718;2023-07-28T02:41:43;101009.03;;;24.19;100.00
51460;BME280;37534;39.772;2.718;2023-07-28T02:44:08;101005.69;;;24.17;100.00
51460;BME280;37534;39.772;2.718;2023-07-28T02:46:34;100996.22;;;24.14;100.00
51460;BME280;37534;39.772;2.718;2023-07-28T02:48:59;100990.34;;;24.10;100.00
51460;BME280;37534;39.772;2.718;2023-07-28T02:51:25;100993.72;;;24.13;100.00
51460;BME280;37534;39.772;2.718;2023-07-28T02:53:51;100993.97;;;24.09;100.00
51460;BME280;37534;39.772;2.718;2023-07-28T02:56:16;100999.22;;;24.09;100.00
51460;BME280;37534;39.772;2.718;2023-07-28T02:58:42;100981.03;;;23.95;100.00
51460;BME280;37534;39.772;2.718;2023-07-28T03:01:07;100988.22;;;23.93;100.00
51460;BME280;37534;39.772;2.718;2023-07-28T03:03:33;100983.19;;;23.90;100.00
51460;BME280;37534;39.772;2.718;2023-07-28T03:05:58;100991.56;;;23.95;100.00
51460;BME280;37534;39.772;2.718;2023-07-28T03:08:24;100987.00;;;24.08;100.00
51460;BME280;37534;39.772;2.718;2023-07-28T03:10:49;100984.59;;;24.17;100.00
51460;BME280;37534;39.772;2.718;2023-07-28T03:13:15;100978.38;;;24.06;100.00
51460;BME280;37534;39.772;2.718;2023-07-28T03:15:40;100985.81;;;24.01;100.00
51460;BME280;37534;39.772;2.718;2023-07-28T03:18:06;100986.53;;;23.92;100.00
51460;BME280;37534;39.772;2.718;2023-07-28T03:20:32;100987.13;;;23.84;100.00
51460;BME280;37534;39.772;2.718;2023-07-28T03:22:57;100981.34;;;23.79;100.00
51460;BME280;37534;39.772;2.718;2023-07-28T03:25:23;100969.50;;;23.73;100.00
51460;BME280;37534;39.772;2.718;2023-07-28T03:27:48;100978.84;;;23.78;100.00
51460;BME280;37534;39.772;2.718;2023-07-28T03:30:14;100975.22;;;23.79;100.00
51460;BME280;37534;39.772;2.718;2023-07-28T03:32:39;100969.13;;;23.78;100.00
51460;BME280;37534;39.772;2.718;2023-07-28T03:35:05;100971.38;;;23.71;100.00
51460;BME280;37534;39.772;2.718;2023-07-28T03:37:32;100958.22;;;23.71;100.00
51460;BME280;37534;39.772;2.718;2023-07-28T03:39:58;100956.19;;;23.64;100.00
51460;BME280;37534;39.772;2.718;2023-07-28T03:42:24;100967.22;;;23.58;100.00
51460;BME280;37534;39.772;2.718;2023-07-28T03:44:49;100965.25;;;23.48;100.00
51460;BME280;37534;39.772;2.718;2023-07-28T03:47:15;100974.03;;;23.49;100.00
51460;BME280;37534;39.772;2.718;2023-07-28T03:49:40;100972.09;;;23.51;100.00
51460;BME280;37534;39.772;2.718;2023-07-28T03:52:06;100963.72;;;23.46;100.00
51460;BME280;37534;39.772;2.718;2023-07-28T03:54:32;100985.72;;;23.33;100.00
51460;BME280;37534;39.772;2.718;2023-07-28T03:56:57;100988.44;;;23.32;100.00
51460;BME280;37534;39.772;2.718;2023-07-28T03:59:23;100996.63;;;23.51;100.00
51460;BME280;37534;39.772;2.718;2023-07-28T04:01:48;100993.88;;;23.42;100.00
51460;BME280;37534;39.772;2.718;2023-07-28T04:04:14;100996.13;;;23.35;100.00
51460;BME280;37534;39.772;2.718;2023-07-28T04:06:48;101010.72;;;23.39;100.00
51460;BME280;37534;39.772;2.718;2023-07-28T04:09:17;101012.13;;;23.21;100.00
51460;BME280;37534;39.772;2.718;2023-07-28T04:11:43;101008.38;;;23.12;100.00
51460;BME280;37534;39.772;2.718;2023-07-28T04:14:09;100999.44;;;23.02;100.00
51460;BME280;37534;39.772;2.718;2023-07-28T04:16:34;101003.78;;;23.03;100.00
51460;BME280;37534;39.772;2.718;2023-07-28T04:19:00;100999.91;;;22.95;100.00
51460;BME280;37534;39.772;2.718;2023-07-28T04:21:26;100987.41;;;22.86;100.00
51460;BME280;37534;39.772;2.718;2023-07-28T04:23:52;100990.28;;;22.83;100.00
51460;BME280;37534;39.772;2.718;2023-07-28T04:26:18;100990.34;;;22.94;100.00
51460;BME280;37534;39.772;2.718;2023-07-28T04:28:44;100999.91;;;23.20;100.00
51460;BME280;37534;39.772;2.718;2023-07-28T04:31:10;100996.81;;;23.02;100.00
51460;BME280;37534;39.772;2.718;2023-07-28T04:33:35;100987.66;;;22.83;100.00
51460;BME280;37534;39.772;2.718;2023-07-28T04:36:04;100992.06;;;22.83;100.00
51460;BME280;37534;39.772;2.718;2023-07-28T04:38:30;100995.03;;;22.78;100.00
51460;BME280;37534;39.772;2.718;2023-07-28T04:40:55;100994.66;;;22.71;100.00
51460;BME280;37534;39.772;2.718;2023-07-28T04:43:21;100990.22;;;22.72;100.00
51460;BME280;37534;39.772;2.718;2023-07-28T04:45:46;100992.13;;;22.70;100.00
51460;BME280;37534;39.772;2.718;2023-07-28T04:48:12;101010.44;;;22.71;100.00
51460;BME280;37534;39.772;2.718;2023-07-28T04:50:37;100999.06;;;22.71;100.00
51460;BME280;37534;39.772;2.718;2023-07-28T04:53:03;101021.84;;;22.83;100.00
51460;BME280;37534;39.772;2.718;2023-07-28T04:55:29;101009.84;;;22.79;100.00
51460;BME280;37534;39.772;2.718;2023-07-28T04:57:55;101017.31;;;22.85;100.00
51460;BME280;37534;39.772;2.718;2023-07-28T05:00:21;101008.84;;;22.93;100.00
51460;BME280;37534;39.772;2.718;2023-07-28T05:02:46;101017.25;;;22.98;100.00
51460;BME280;37534;39.772;2.718;2023-07-28T05:05:12;101007.06;;;22.93;100.00
51460;BME280;37534;39.772;2.718;2023-07-28T05:07:38;101012.56;;;22.90;100.00
51460;BME280;37534;39.772;2.718;2023-07-28T05:10:03;101010.97;;;22.88;100.00
51460;BME280;37534;39.772;2.718;2023-07-28T05:12:29;101016.25;;;22.88;100.00
51460;BME280;37534;39.772;2.718;2023-07-28T05:14:55;101019.06;;;22.97;100.00
51460;BME280;37534;39.772;2.718;2023-07-28T05:17:20;101005.69;;;23.01;100.00
51460;BME280;37534;39.772;2.718;2023-07-28T05:19:46;101014.47;;;23.12;100.00
51460;BME280;37534;39.772;2.718;2023-07-28T05:22:11;101015.31;;;23.13;100.00
51460;BME280;37534;39.772;2.718;2023-07-28T05:24:37;101027.03;;;23.09;100.00
51460;BME280;37534;39.772;2.718;2023-07-28T05:27:02;101038.91;;;23.02;100.00
51460;BME280;37534;39.772;2.718;2023-07-28T05:29:28;101042.13;;;22.94;100.00
51460;BME280;37534;39.772;2.718;2023-07-28T05:31:54;101043.16;;;22.91;100.00
51460;BME280;37534;39.772;2.718;2023-07-28T05:34:19;101035.00;;;22.83;100.00
51460;BME280;37534;39.772;2.718;2023-07-28T05:36:45;101034.50;;;22.78;100.00
51460;BME280;37534;39.772;2.718;2023-07-28T05:39:10;101044.56;;;22.84;100.00
51460;BME280;37534;39.772;2.718;2023-07-28T05:41:37;101052.13;;;22.89;100.00
51460;BME280;37534;39.772;2.718;2023-07-28T05:44:03;101042.94;;;22.94;100.00
51460;BME280;37534;39.772;2.718;2023-07-28T05:46:29;101053.69;;;22.91;100.00
51460;BME280;37534;39.772;2.718;2023-07-28T05:48:55;101065.28;;;22.89;100.00
51460;BME280;37534;39.772;2.718;2023-07-28T05:51:21;101064.66;;;22.85;100.00
51460;BME280;37534;39.772;2.718;2023-07-28T05:53:47;101078.72;;;22.97;100.00
51460;BME280;37534;39.772;2.718;2023-07-28T05:56:13;101067.13;;;23.00;100.00
51460;BME280;37534;39.772;2.718;2023-07-28T05:58:38;101071.06;;;23.18;100.00
51460;BME280;37534;39.772;2.718;2023-07-28T06:01:04;101073.66;;;23.31;100.00
51460;BME280;37534;39.772;2.718;2023-07-28T06:03:31;101091.59;;;23.61;100.00
51460;BME280;37534;39.772;2.718;2023-07-28T06:05:57;101099.84;;;23.92;100.00
51460;BME280;37534;39.772;2.718;2023-07-28T06:08:22;101094.94;;;23.99;100.00
51460;BME280;37534;39.772;2.718;2023-07-28T06:10:48;101107.78;;;24.15;100.00
51460;BME280;37534;39.772;2.718;2023-07-28T06:13:14;101104.31;;;24.25;100.00
51460;BME280;37534;39.772;2.718;2023-07-28T06:15:40;101101.31;;;24.41;100.00
51460;BME280;37534;39.772;2.718;2023-07-28T06:18:06;101096.25;;;24.49;100.00
51460;BME280;37534;39.772;2.718;2023-07-28T06:20:31;101105.13;;;24.71;100.00
51460;BME280;37534;39.772;2.718;2023-07-28T06:22:57;101120.94;;;24.94;100.00
51460;BME280;37534;39.772;2.718;2023-07-28T06:25:23;101119.97;;;25.06;100.00
51460;BME280;37534;39.772;2.718;2023-07-28T06:27:48;101111.09;;;25.07;100.00
51460;BME280;37534;39.772;2.718;2023-07-28T06:30:14;101112.94;;;25.28;100.00
51460;BME280;37534;39.772;2.718;2023-07-28T06:32:39;101134.00;;;25.50;100.00
51460;BME280;37534;39.772;2.718;2023-07-28T06:35:05;101125.56;;;25.56;100.00
51460;BME280;37534;39.772;2.718;2023-07-28T06:37:33;101131.28;;;25.61;100.00
51460;BME280;37534;39.772;2.718;2023-07-28T06:39:58;101134.16;;;25.70;100.00
51460;BME280;37534;39.772;2.718;2023-07-28T06:42:24;101133.38;;;25.79;100.00
51460;BME280;37534;39.772;2.718;2023-07-28T06:44:51;101123.72;;;25.89;100.00
51460;BME280;37534;39.772;2.718;2023-07-28T06:47:18;101115.53;;;25.92;100.00
51460;BME280;37534;39.772;2.718;2023-07-28T06:49:43;101146.69;;;26.10;100.00
51460;BME280;37534;39.772;2.718;2023-07-28T06:52:09;101139.00;;;26.07;100.00
51460;BME280;37534;39.772;2.718;2023-07-28T06:54:36;101144.66;;;26.23;96.24
51460;BME280;37534;39.772;2.718;2023-07-28T06:57:02;101136.47;;;26.26;94.87
51460;BME280;37534;39.772;2.718;2023-07-28T06:59:28;101138.22;;;26.47;91.32
51460;BME280;37534;39.772;2.718;2023-07-28T07:01:53;101136.44;;;26.57;89.06
51460;BME280;37534;39.772;2.718;2023-07-28T07:04:19;101142.84;;;26.76;89.59
51460;BME280;37534;39.772;2.718;2023-07-28T07:06:45;101140.88;;;26.87;86.14
51460;BME280;37534;39.772;2.718;2023-07-28T07:09:10;101140.78;;;27.08;85.91
51460;BME280;37534;39.772;2.718;2023-07-28T07:11:40;101133.44;;;27.22;86.12
51460;BME280;37534;39.772;2.718;2023-07-28T07:14:06;101124.13;;;27.37;85.16
51460;BME280;37534;39.772;2.718;2023-07-28T07:16:32;101144.63;;;27.64;86.57
51460;BME280;37534;39.772;2.718;2023-07-28T07:18:58;101150.19;;;27.81;88.52
51460;BME280;37534;39.772;2.718;2023-07-28T07:21:24;101150.59;;;27.96;86.55
51460;BME280;37534;39.772;2.718;2023-07-28T07:23:49;101148.63;;;28.08;88.35
51460;BME280;37534;39.772;2.718;2023-07-28T07:26:15;101155.16;;;28.13;91.04
51460;BME280;37534;39.772;2.718;2023-07-28T07:28:40;101145.25;;;28.15;89.83
51460;BME280;37534;39.772;2.718;2023-07-28T07:31:15;101149.66;;;28.24;87.35
51460;BME280;37534;39.772;2.718;2023-07-28T07:33:41;101159.94;;;28.47;88.45
51460;BME280;37534;39.772;2.718;2023-07-28T07:36:17;101158.66;;;28.61;87.12
51460;BME280;37534;39.772;2.718;2023-07-28T07:38:44;101160.28;;;28.72;86.00
51460;BME280;37534;39.772;2.718;2023-07-28T07:41:13;101151.41;;;28.81;86.17
51460;BME280;37534;39.772;2.718;2023-07-28T07:43:41;101174.66;;;28.97;84.42
51460;BME280;37534;39.772;2.718;2023-07-28T07:46:07;101172.78;;;29.07;83.40
51460;BME280;37534;39.772;2.718;2023-07-28T07:48:32;101172.06;;;29.15;83.17
51460;BME280;37534;39.772;2.718;2023-07-28T07:50:58;101168.13;;;29.19;83.42
51460;BME280;37534;39.772;2.718;2023-07-28T07:53:24;101179.84;;;29.26;82.54
51460;BME280;37534;39.772;2.718;2023-07-28T07:55:49;101173.91;;;29.32;83.47
51460;BME280;37534;39.772;2.718;2023-07-28T07:58:15;101178.97;;;29.44;82.95
51460;BME280;37534;39.772;2.718;2023-07-28T08:00:40;101187.25;;;29.58;83.02
51460;BME280;37534;39.772;2.718;2023-07-28T08:03:06;101165.22;;;29.66;82.51
51460;BME280;37534;39.772;2.718;2023-07-28T08:05:32;101164.69;;;29.81;79.45
51460;BME280;37534;39.772;2.718;2023-07-28T08:07:58;101172.78;;;29.97;78.94
51460;BME280;37534;39.772;2.718;2023-07-28T08:10:23;101176.69;;;30.11;80.01
51460;BME280;37534;39.772;2.718;2023-07-28T08:12:49;101188.28;;;30.28;79.18
51460;BME280;37534;39.772;2.718;2023-07-28T08:15:15;101193.38;;;30.39;79.34
51460;BME280;37534;39.772;2.718;2023-07-28T08:17:41;101181.25;;;30.45;80.39
51460;BME280;37534;39.772;2.718;2023-07-28T08:20:07;101203.25;;;30.55;83.02
51460;BME280;37534;39.772;2.718;2023-07-28T08:22:33;101200.44;;;30.57;82.11
51460;BME280;37534;39.772;2.718;2023-07-28T08:24:59;101202.13;;;30.58;82.83
51460;BME280;37534;39.772;2.718;2023-07-28T08:27:25;101197.31;;;30.61;82.99
51460;BME280;37534;39.772;2.718;2023-07-28T08:29:50;101192.16;;;30.68;82.46
51460;BME280;37534;39.772;2.718;2023-07-28T08:32:16;101183.03;;;30.70;83.64
51460;BME280;37534;39.772;2.718;2023-07-28T08:34:42;101188.88;;;30.82;82.11
51460;BME280;37534;39.772;2.718;2023-07-28T08:37:07;101185.09;;;30.85;79.63
51460;BME280;37534;39.772;2.718;2023-07-28T08:39:33;101174.28;;;30.86;78.96
51460;BME280;37534;39.772;2.718;2023-07-28T08:42:02;101195.16;;;30.99;79.74
51460;BME280;37534;39.772;2.718;2023-07-28T08:44:33;101185.00;;;31.03;79.50
51460;BME280;37534;39.772;2.718;2023-07-28T08:47:00;101193.69;;;31.13;80.31
51460;BME280;37534;39.772;2.718;2023-07-28T08:49:25;101191.03;;;31.13;79.15
51460;BME280;37534;39.772;2.718;2023-07-28T08:51:52;101181.84;;;31.07;79.75
51460;BME280;37534;39.772;2.718;2023-07-28T08:54:17;101181.53;;;31.19;78.43
51460;BME280;37534;39.772;2.718;2023-07-28T08:56:43;101168.41;;;31.25;77.28
51460;BME280;37534;39.772;2.718;2023-07-28T08:59:09;101175.72;;;31.32;79.18
51460;BME280;37534;39.772;2.718;2023-07-28T09:01:41;101176.72;;;31.31;77.94
51460;BME280;37534;39.772;2.718;2023-07-28T09:04:12;101183.22;;;31.44;78.42
51460;BME280;37534;39.772;2.718;2023-07-28T09:06:38;101179.78;;;31.52;79.51
51460;BME280;37534;39.772;2.718;2023-07-28T09:09:07;101177.72;;;31.46;81.13
51460;BME280;37534;39.772;2.718;2023-07-28T09:11:32;101184.59;;;31.49;79.47
51460;BME280;37534;39.772;2.718;2023-07-28T09:14:02;101183.44;;;31.51;80.98
51460;BME280;37534;39.772;2.718;2023-07-28T09:16:28;101172.06;;;31.41;83.41
51460;BME280;37534;39.772;2.718;2023-07-28T09:19:05;101196.09;;;31.49;81.57
51460;BME280;37534;39.772;2.718;2023-07-28T09:21:32;101194.75;;;31.45;80.69
51460;BME280;37534;39.772;2.718;2023-07-28T09:24:00;101194.78;;;31.61;82.12
51460;BME280;37534;39.772;2.718;2023-07-28T09:26:39;101177.44;;;31.57;81.77
51460;BME280;37534;39.772;2.718;2023-07-28T09:29:15;101193.09;;;31.60;80.24
51460;BME280;37534;39.772;2.718;2023-07-28T09:31:46;101191.91;;;31.46;80.94
51460;BME280;37534;39.772;2.718;2023-07-28T09:34:13;101168.53;;;31.32;81.97
51460;BME280;37534;39.772;2.718;2023-07-28T09:36:48;101191.72;;;31.40;83.00
51460;BME280;37534;39.772;2.718;2023-07-28T09:39:14;101194.59;;;31.55;81.69
51460;BME280;37534;39.772;2.718;2023-07-28T09:41:40;101196.63;;;31.61;80.44
51460;BME280;37534;39.772;2.718;2023-07-28T09:44:05;101184.09;;;31.61;80.61
51460;BME280;37534;39.772;2.718;2023-07-28T09:46:35;101190.25;;;31.62;79.02
51460;BME280;37534;39.772;2.718;2023-07-28T09:49:10;101195.09;;;31.75;78.46
51460;BME280;37534;39.772;2.718;2023-07-28T09:51:39;101190.94;;;31.64;79.40
51460;BME280;37534;39.772;2.718;2023-07-28T09:54:12;101203.09;;;31.67;81.41
51460;BME280;37534;39.772;2.718;2023-07-28T09:56:38;101201.63;;;31.80;79.32
51460;BME280;37534;39.772;2.718;2023-07-28T09:59:11;101191.28;;;31.86;81.16
51460;BME280;37534;39.772;2.718;2023-07-28T10:01:39;101202.44;;;31.73;81.15
51460;BME280;37534;39.772;2.718;2023-07-28T10:04:06;101201.09;;;31.69;81.62
51460;BME280;37534;39.772;2.718;2023-07-28T10:06:32;101201.44;;;31.82;81.16
51460;BME280;37534;39.772;2.718;2023-07-28T10:08:59;101189.41;;;32.02;79.98
51460;BME280;37534;39.772;2.718;2023-07-28T10:11:25;101186.09;;;32.09;78.02
51460;BME280;37534;39.772;2.718;2023-07-28T10:13:54;101194.41;;;32.14;78.83
51460;BME280;37534;39.772;2.718;2023-07-28T10:16:20;101177.41;;;32.15;77.87
51460;BME280;37534;39.772;2.718;2023-07-28T10:18:55;101187.72;;;32.26;77.72
51460;BME280;37534;39.772;2.718;2023-07-28T10:21:20;101181.84;;;32.39;75.78
51460;BME280;37534;39.772;2.718;2023-07-28T10:23:54;101190.34;;;32.43;76.04
51460;BME280;37534;39.772;2.718;2023-07-28T10:26:39;101183.44;;;32.56;74.34
51460;BME280;37534;39.772;2.718;2023-07-28T10:29:15;101184.94;;;32.67;74.67
51460;BME280;37534;39.772;2.718;2023-07-28T10:31:53;101183.75;;;32.70;72.99
51460;BME280;37534;39.772;2.718;2023-07-28T10:34:21;101179.22;;;32.70;72.79
51460;BME280;37534;39.772;2.718;2023-07-28T10:36:56;101187.66;;;32.90;73.17
51460;BME280;37534;39.772;2.718;2023-07-28T10:39:22;101188.63;;;32.97;71.05
51460;BME280;37534;39.772;2.718;2023-07-28T10:42:02;101186.38;;;33.09;70.72
51460;BME280;37534;39.772;2.718;2023-07-28T10:44:29;101178.34;;;33.18;71.16
51460;BME280;37534;39.772;2.718;2023-07-28T10:46:54;101180.25;;;33.01;73.24
51460;BME280;37534;39.772;2.718;2023-07-28T10:49:20;101186.50;;;33.24;69.62
51460;BME280;37534;39.772;2.718;2023-07-28T10:51:46;101179.47;;;33.23;69.93
51460;BME280;37534;39.772;2.718;2023-07-28T10:54:12;101183.91;;;33.31;68.92
51460;BME280;37534;39.772;2.718;2023-07-28T10:56:44;101174.63;;;33.19;70.89
51460;BME280;37534;39.772;2.718;2023-07-28T10:59:09;101185.25;;;33.35;70.15
51460;BME280;37534;39.772;2.718;2023-07-28T11:01:37;101192.06;;;33.14;71.29
51460;BME280;37534;39.772;2.718;2023-07-28T11:04:20;101180.53;;;33.37;70.29
51460;BME280;37534;39.772;2.718;2023-07-28T11:06:50;101170.44;;;33.47;69.65
51460;BME280;37534;39.772;2.718;2023-07-28T11:09:17;101180.28;;;33.70;68.25
51460;BME280;37534;39.772;2.718;2023-07-28T11:11:44;101176.63;;;33.63;68.68
51460;BME280;37534;39.772;2.718;2023-07-28T11:14:11;101172.25;;;33.70;68.80
51460;BME280;37534;39.772;2.718;2023-07-28T11:16:38;101166.56;;;33.73;69.26
51460;BME280;37534;39.772;2.718;2023-07-28T11:19:09;101164.09;;;33.86;68.64
51460;BME280;37534;39.772;2.718;2023-07-28T11:21:39;101166.50;;;33.81;68.15
51460;BME280;37534;39.772;2.718;2023-07-28T11:24:09;101159.81;;;33.77;68.02
51460;BME280;37534;39.772;2.718;2023-07-28T11:26:36;101152.66;;;33.93;67.75
51460;BME280;37534;39.772;2.718;2023-07-28T11:29:03;101155.69;;;33.89;68.60
51460;BME280;37534;39.772;2.718;2023-07-28T11:31:29;101149.03;;;34.00;66.86
51460;BME280;37534;39.772;2.718;2023-07-28T11:33:54;101155.97;;;33.95;66.68
51460;BME280;37534;39.772;2.718;2023-07-28T11:36:27;101154.47;;;33.77;66.91
51460;BME280;37534;39.772;2.718;2023-07-28T11:38:55;101144.78;;;33.76;68.05
51460;BME280;37534;39.772;2.718;2023-07-28T11:41:22;101144.97;;;33.75;68.67
51460;BME280;37534;39.772;2.718;2023-07-28T11:43:49;101142.22;;;33.83;67.67
51460;BME280;37534;39.772;2.718;2023-07-28T11:46:37;101140.25;;;33.91;67.34
51460;BME280;37534;39.772;2.718;2023-07-28T11:51:39;101140.47;;;34.05;67.30
51460;BME280;37534;39.772;2.718;2023-07-28T11:54:06;101133.66;;;34.02;66.66
51460;BME280;37534;39.772;2.718;2023-07-28T11:56:32;101135.66;;;34.00;67.53
51460;BME280;37534;39.772;2.718;2023-07-28T11:58:58;101134.09;;;33.91;67.79
51460;BME280;37534;39.772;2.718;2023-07-28T12:01:23;101131.41;;;33.91;68.67
51460;BME280;37534;39.772;2.718;2023-07-28T12:03:49;101134.19;;;33.98;67.76
51460;BME280;37534;39.772;2.718;2023-07-28T12:06:15;101129.47;;;34.00;67.74
51460;BME280;37534;39.772;2.718;2023-07-28T12:08:40;101129.84;;;33.97;68.38
51460;BME280;37534;39.772;2.718;2023-07-28T12:11:14;101123.19;;;34.07;67.82
51460;BME280;37534;39.772;2.718;2023-07-28T12:13:48;101129.22;;;34.24;66.78
51460;BME280;37534;39.772;2.718;2023-07-28T12:18:59;101127.00;;;33.83;68.02
51460;BME280;37534;39.772;2.718;2023-07-28T12:21:24;101112.56;;;33.84;66.93
51460;BME280;37534;39.772;2.718;2023-07-28T12:23:50;101117.56;;;33.87;68.03
51460;BME280;37534;39.772;2.718;2023-07-28T12:26:15;101119.78;;;34.14;67.31
51460;BME280;37534;39.772;2.718;2023-07-28T12:28:41;101113.69;;;34.05;67.36
51460;BME280;37534;39.772;2.718;2023-07-28T12:31:06;101108.56;;;34.18;66.59
51460;BME280;37534;39.772;2.718;2023-07-28T12:33:32;101105.31;;;34.08;66.43
51460;BME280;37534;39.772;2.718;2023-07-28T12:35:58;101097.72;;;33.97;65.97
51460;BME280;37534;39.772;2.718;2023-07-28T12:38:23;101101.97;;;33.91;68.05
51460;BME280;37534;39.772;2.718;2023-07-28T12:40:49;101099.69;;;34.03;66.96
51460;BME280;37534;39.772;2.718;2023-07-28T12:43:14;101097.47;;;34.06;65.80
51460;BME280;37534;39.772;2.718;2023-07-28T12:45:40;101095.59;;;34.07;66.80
51460;BME280;37534;39.772;2.718;2023-07-28T12:48:06;101095.50;;;34.00;67.28
51460;BME280;37534;39.772;2.718;2023-07-28T12:50:32;101095.97;;;34.04;67.21